sensor_id;sensor_type;location;lat;lon;timestamp;temperature;humidity
16901;DHT22;8567;52.540;6.434;2023-12-20T00:01:56;18.90;56.80
16901;DHT22;8567;52.540;6.434;2023-12-20T00:04:23;19.00;56.80
16901;DHT22;8567;52.540;6.434;2023-12-20T00:06:50;19.00;56.80
16901;DHT22;8567;52.540;6.434;2023-12-20T00:09:17;19.00;56.90
16901;DHT22;8567;52.540;6.434;2023-12-20T00:11:44;19.00;56.90
16901;DHT22;8567;52.540;6.434;2023-12-20T00:14:12;19.00;56.90
16901;DHT22;8567;52.540;6.434;2023-12-20T00:16:40;19.00;57.00
16901;DHT22;8567;52.540;6.434;2023-12-20T00:19:07;19.00;57.10
16901;DHT22;8567;52.540;6.434;2023-12-20T00:21:34;19.00;57.10
16901;DHT22;8567;52.540;6.434;2023-12-20T00:24:01;19.00;57.10
16901;DHT22;8567;52.540;6.434;2023-12-20T00:26:28;19.00;57.10
16901;DHT22;8567;52.540;6.434;2023-12-20T00:28:55;19.00;57.20
16901;DHT22;8567;52.540;6.434;2023-12-20T00:31:22;19.00;57.20
16901;DHT22;8567;52.540;6.434;2023-12-20T00:33:51;19.00;57.30
16901;DHT22;8567;52.540;6.434;2023-12-20T00:36:17;19.00;57.30
16901;DHT22;8567;52.540;6.434;2023-12-20T00:38:45;19.00;57.30
16901;DHT22;8567;52.540;6.434;2023-12-20T00:41:11;19.00;57.30
16901;DHT22;8567;52.540;6.434;2023-12-20T00:43:38;19.00;57.30
16901;DHT22;8567;52.540;6.434;2023-12-20T00:46:05;19.00;57.40
16901;DHT22;8567;52.540;6.434;2023-12-20T00:48:32;19.00;57.50
16901;DHT22;8567;52.540;6.434;2023-12-20T00:51:00;19.00;57.50
16901;DHT22;8567;52.540;6.434;2023-12-20T00:53:27;19.00;57.40
16901;DHT22;8567;52.540;6.434;2023-12-20T00:55:54;19.00;57.40
16901;DHT22;8567;52.540;6.434;2023-12-20T00:58:21;19.00;57.50
16901;DHT22;8567;52.540;6.434;2023-12-20T01:00:47;19.00;57.40
16901;DHT22;8567;52.540;6.434;2023-12-20T01:03:14;19.00;57.50
16901;DHT22;8567;52.540;6.434;2023-12-20T01:05:41;19.00;57.50
16901;DHT22;8567;52.540;6.434;2023-12-20T01:08:10;19.00;57.60
16901;DHT22;8567;52.540;6.434;2023-12-20T01:10:37;19.00;57.60
16901;DHT22;8567;52.540;6.434;2023-12-20T01:13:04;19.00;57.60
16901;DHT22;8567;52.540;6.434;2023-12-20T01:15:30;19.00;57.60
16901;DHT22;8567;52.540;6.434;2023-12-20T01:17:57;19.00;57.60
16901;DHT22;8567;52.540;6.434;2023-12-20T01:20:25;19.00;57.70
16901;DHT22;8567;52.540;6.434;2023-12-20T01:22:52;19.00;57.60
16901;DHT22;8567;52.540;6.434;2023-12-20T01:25:20;19.00;57.60
16901;DHT22;8567;52.540;6.434;2023-12-20T01:27:47;19.00;57.60
16901;DHT22;8567;52.540;6.434;2023-12-20T01:30:15;19.00;57.60
16901;DHT22;8567;52.540;6.434;2023-12-20T01:32:42;19.00;57.60
16901;DHT22;8567;52.540;6.434;2023-12-20T01:35:09;19.00;57.70
16901;DHT22;8567;52.540;6.434;2023-12-20T01:37:37;19.00;57.70
16901;DHT22;8567;52.540;6.434;2023-12-20T01:40:05;19.00;57.70
16901;DHT22;8567;52.540;6.434;2023-12-20T01:42:35;19.00;57.70
16901;DHT22;8567;52.540;6.434;2023-12-20T01:45:01;19.00;57.70
16901;DHT22;8567;52.540;6.434;2023-12-20T01:47:29;19.00;57.60
16901;DHT22;8567;52.540;6.434;2023-12-20T01:49:56;19.00;57.70
16901;DHT22;8567;52.540;6.434;2023-12-20T01:52:24;19.00;57.60
16901;DHT22;8567;52.540;6.434;2023-12-20T01:54:52;19.00;57.60
16901;DHT22;8567;52.540;6.434;2023-12-20T01:57:22;19.00;57.60
16901;DHT22;8567;52.540;6.434;2023-12-20T01:59:50;19.00;57.60
16901;DHT22;8567;52.540;6.434;2023-12-20T02:02:17;19.00;57.60
16901;DHT22;8567;52.540;6.434;2023-12-20T02:04:44;19.00;57.60
16901;DHT22;8567;52.540;6.434;2023-12-20T02:07:13;19.00;57.50
16901;DHT22;8567;52.540;6.434;2023-12-20T02:09:40;19.00;57.60
16901;DHT22;8567;52.540;6.434;2023-12-20T02:12:07;19.00;57.50
16901;DHT22;8567;52.540;6.434;2023-12-20T02:14:35;19.00;57.50
16901;DHT22;8567;52.540;6.434;2023-12-20T02:17:03;19.00;57.50
16901;DHT22;8567;52.540;6.434;2023-12-20T02:19:31;19.00;57.50
16901;DHT22;8567;52.540;6.434;2023-12-20T02:22:09;19.00;57.50
16901;DHT22;8567;52.540;6.434;2023-12-20T02:24:36;19.00;57.30
16901;DHT22;8567;52.540;6.434;2023-12-20T02:27:06;19.00;57.30
16901;DHT22;8567;52.540;6.434;2023-12-20T02:29:33;19.00;57.30
16901;DHT22;8567;52.540;6.434;2023-12-20T02:32:01;19.00;57.30
16901;DHT22;8567;52.540;6.434;2023-12-20T02:34:28;19.00;57.30
16901;DHT22;8567;52.540;6.434;2023-12-20T02:36:55;19.00;57.40
16901;DHT22;8567;52.540;6.434;2023-12-20T02:39:23;19.00;57.30
16901;DHT22;8567;52.540;6.434;2023-12-20T02:41:50;19.00;57.30
16901;DHT22;8567;52.540;6.434;2023-12-20T02:44:17;19.00;57.20
16901;DHT22;8567;52.540;6.434;2023-12-20T02:46:44;19.00;57.10
16901;DHT22;8567;52.540;6.434;2023-12-20T02:49:12;19.00;57.10
16901;DHT22;8567;52.540;6.434;2023-12-20T02:51:38;19.00;57.10
16901;DHT22;8567;52.540;6.434;2023-12-20T02:54:05;19.00;57.10
16901;DHT22;8567;52.540;6.434;2023-12-20T02:56:34;19.00;57.20
16901;DHT22;8567;52.540;6.434;2023-12-20T02:59:01;19.00;57.20
16901;DHT22;8567;52.540;6.434;2023-12-20T03:01:31;19.00;57.10
16901;DHT22;8567;52.540;6.434;2023-12-20T03:04:00;19.00;57.10
16901;DHT22;8567;52.540;6.434;2023-12-20T03:06:27;19.00;57.10
16901;DHT22;8567;52.540;6.434;2023-12-20T03:08:54;19.00;57.10
16901;DHT22;8567;52.540;6.434;2023-12-20T03:11:21;19.00;57.00
16901;DHT22;8567;52.540;6.434;2023-12-20T03:13:49;19.00;57.10
16901;DHT22;8567;52.540;6.434;2023-12-20T03:16:16;19.00;57.10
16901;DHT22;8567;52.540;6.434;2023-12-20T03:18:43;19.00;57.10
16901;DHT22;8567;52.540;6.434;2023-12-20T03:21:09;19.00;57.10
16901;DHT22;8567;52.540;6.434;2023-12-20T03:23:36;19.00;57.20
16901;DHT22;8567;52.540;6.434;2023-12-20T03:26:07;18.90;57.00
16901;DHT22;8567;52.540;6.434;2023-12-20T03:28:34;19.00;57.00
16901;DHT22;8567;52.540;6.434;2023-12-20T03:31:04;19.00;57.00
16901;DHT22;8567;52.540;6.434;2023-12-20T03:33:32;19.00;56.90
16901;DHT22;8567;52.540;6.434;2023-12-20T03:35:59;19.00;56.70
16901;DHT22;8567;52.540;6.434;2023-12-20T03:38:26;19.00;57.00
16901;DHT22;8567;52.540;6.434;2023-12-20T03:40:52;18.90;57.00
16901;DHT22;8567;52.540;6.434;2023-12-20T03:43:19;19.00;56.80
16901;DHT22;8567;52.540;6.434;2023-12-20T03:45:48;19.00;56.80
16901;DHT22;8567;52.540;6.434;2023-12-20T03:48:16;19.00;56.90
16901;DHT22;8567;52.540;6.434;2023-12-20T03:50:43;19.00;57.00
16901;DHT22;8567;52.540;6.434;2023-12-20T03:53:13;19.00;56.90
16901;DHT22;8567;52.540;6.434;2023-12-20T03:55:40;19.00;57.00
16901;DHT22;8567;52.540;6.434;2023-12-20T03:58:08;19.00;57.00
16901;DHT22;8567;52.540;6.434;2023-12-20T04:00:35;18.90;56.90
16901;DHT22;8567;52.540;6.434;2023-12-20T04:03:02;19.00;56.80
16901;DHT22;8567;52.540;6.434;2023-12-20T04:05:30;19.00;56.80
16901;DHT22;8567;52.540;6.434;2023-12-20T04:07:59;18.90;56.80
16901;DHT22;8567;52.540;6.434;2023-12-20T04:10:26;18.90;56.90
16901;DHT22;8567;52.540;6.434;2023-12-20T04:12:53;19.00;56.90
16901;DHT22;8567;52.540;6.434;2023-12-20T04:15:20;18.90;56.80
16901;DHT22;8567;52.540;6.434;2023-12-20T04:17:47;18.90;56.90
16901;DHT22;8567;52.540;6.434;2023-12-20T04:20:14;18.90;56.90
16901;DHT22;8567;52.540;6.434;2023-12-20T04:22:42;18.90;56.90
16901;DHT22;8567;52.540;6.434;2023-12-20T04:25:09;18.90;56.80
16901;DHT22;8567;52.540;6.434;2023-12-20T04:27:36;18.90;56.90
16901;DHT22;8567;52.540;6.434;2023-12-20T04:30:04;18.90;56.80
16901;DHT22;8567;52.540;6.434;2023-12-20T04:32:31;19.00;56.90
16901;DHT22;8567;52.540;6.434;2023-12-20T04:34:58;19.00;57.00
16901;DHT22;8567;52.540;6.434;2023-12-20T04:37:25;19.00;56.90
16901;DHT22;8567;52.540;6.434;2023-12-20T04:39:53;18.90;56.80
16901;DHT22;8567;52.540;6.434;2023-12-20T04:42:20;19.00;56.70
16901;DHT22;8567;52.540;6.434;2023-12-20T04:44:47;19.00;56.70
16901;DHT22;8567;52.540;6.434;2023-12-20T04:47:14;18.90;56.70
16901;DHT22;8567;52.540;6.434;2023-12-20T04:49:41;18.90;56.70
16901;DHT22;8567;52.540;6.434;2023-12-20T04:52:08;18.90;56.70
16901;DHT22;8567;52.540;6.434;2023-12-20T04:54:34;18.90;56.70
16901;DHT22;8567;52.540;6.434;2023-12-20T04:57:04;18.90;56.40
16901;DHT22;8567;52.540;6.434;2023-12-20T04:59:31;19.00;56.70
16901;DHT22;8567;52.540;6.434;2023-12-20T05:01:58;18.90;56.80
16901;DHT22;8567;52.540;6.434;2023-12-20T05:04:25;18.90;56.70
16901;DHT22;8567;52.540;6.434;2023-12-20T05:06:53;18.90;56.60
16901;DHT22;8567;52.540;6.434;2023-12-20T05:09:21;18.90;56.70
16901;DHT22;8567;52.540;6.434;2023-12-20T05:11:49;18.90;56.70
16901;DHT22;8567;52.540;6.434;2023-12-20T05:14:17;18.90;56.60
16901;DHT22;8567;52.540;6.434;2023-12-20T05:16:44;18.90;56.70
16901;DHT22;8567;52.540;6.434;2023-12-20T05:19:11;18.90;56.70
16901;DHT22;8567;52.540;6.434;2023-12-20T05:21:38;18.90;56.70
16901;DHT22;8567;52.540;6.434;2023-12-20T05:24:05;18.90;56.50
16901;DHT22;8567;52.540;6.434;2023-12-20T05:26:32;18.90;56.40
16901;DHT22;8567;52.540;6.434;2023-12-20T05:28:59;18.90;56.60
16901;DHT22;8567;52.540;6.434;2023-12-20T05:31:27;18.90;56.60
16901;DHT22;8567;52.540;6.434;2023-12-20T05:33:54;18.90;56.60
16901;DHT22;8567;52.540;6.434;2023-12-20T05:36:21;18.90;56.60
16901;DHT22;8567;52.540;6.434;2023-12-20T05:38:48;18.90;56.30
16901;DHT22;8567;52.540;6.434;2023-12-20T05:41:15;18.90;56.50
16901;DHT22;8567;52.540;6.434;2023-12-20T05:43:42;18.90;56.50
16901;DHT22;8567;52.540;6.434;2023-12-20T05:46:10;18.90;56.40
16901;DHT22;8567;52.540;6.434;2023-12-20T05:48:39;18.90;56.50
16901;DHT22;8567;52.540;6.434;2023-12-20T05:51:05;18.90;56.60
16901;DHT22;8567;52.540;6.434;2023-12-20T05:53:33;18.90;56.40
16901;DHT22;8567;52.540;6.434;2023-12-20T05:56:00;18.90;56.40
16901;DHT22;8567;52.540;6.434;2023-12-20T05:58:27;18.90;56.50
16901;DHT22;8567;52.540;6.434;2023-12-20T06:00:54;18.90;56.40
16901;DHT22;8567;52.540;6.434;2023-12-20T06:03:21;18.90;56.50
16901;DHT22;8567;52.540;6.434;2023-12-20T06:05:50;18.90;56.40
16901;DHT22;8567;52.540;6.434;2023-12-20T06:08:17;18.90;56.50
16901;DHT22;8567;52.540;6.434;2023-12-20T06:10:44;18.90;56.60
16901;DHT22;8567;52.540;6.434;2023-12-20T06:13:11;18.90;56.50
16901;DHT22;8567;52.540;6.434;2023-12-20T06:15:39;18.90;56.50
16901;DHT22;8567;52.540;6.434;2023-12-20T06:18:07;18.90;56.50
16901;DHT22;8567;52.540;6.434;2023-12-20T06:20:33;18.90;56.50
16901;DHT22;8567;52.540;6.434;2023-12-20T06:23:02;18.90;56.40
16901;DHT22;8567;52.540;6.434;2023-12-20T06:25:28;18.90;56.20
16901;DHT22;8567;52.540;6.434;2023-12-20T06:27:55;18.90;56.30
16901;DHT22;8567;52.540;6.434;2023-12-20T06:30:22;18.90;56.40
16901;DHT22;8567;52.540;6.434;2023-12-20T06:32:50;18.90;56.40
16901;DHT22;8567;52.540;6.434;2023-12-20T06:35:18;18.90;56.30
16901;DHT22;8567;52.540;6.434;2023-12-20T06:37:45;18.90;56.30
16901;DHT22;8567;52.540;6.434;2023-12-20T06:40:13;18.90;56.00
16901;DHT22;8567;52.540;6.434;2023-12-20T06:42:41;18.90;56.20
16901;DHT22;8567;52.540;6.434;2023-12-20T06:45:09;18.90;56.30
16901;DHT22;8567;52.540;6.434;2023-12-20T06:47:38;18.90;56.10
16901;DHT22;8567;52.540;6.434;2023-12-20T06:50:05;18.90;56.10
16901;DHT22;8567;52.540;6.434;2023-12-20T06:52:33;18.90;56.10
16901;DHT22;8567;52.540;6.434;2023-12-20T06:55:01;18.90;55.90
16901;DHT22;8567;52.540;6.434;2023-12-20T06:57:29;18.90;56.00
16901;DHT22;8567;52.540;6.434;2023-12-20T06:59:56;18.90;56.50
16901;DHT22;8567;52.540;6.434;2023-12-20T07:02:24;18.90;57.20
16901;DHT22;8567;52.540;6.434;2023-12-20T07:04:51;19.00;57.10
16901;DHT22;8567;52.540;6.434;2023-12-20T07:07:21;19.00;57.50
16901;DHT22;8567;52.540;6.434;2023-12-20T07:09:50;19.00;57.30
16901;DHT22;8567;52.540;6.434;2023-12-20T07:12:16;19.00;57.40
16901;DHT22;8567;52.540;6.434;2023-12-20T07:14:46;19.00;57.10
16901;DHT22;8567;52.540;6.434;2023-12-20T07:17:13;19.00;57.30
16901;DHT22;8567;52.540;6.434;2023-12-20T07:19:40;19.00;57.50
16901;DHT22;8567;52.540;6.434;2023-12-20T07:22:09;19.00;58.20
16901;DHT22;8567;52.540;6.434;2023-12-20T07:24:36;19.10;58.30
16901;DHT22;8567;52.540;6.434;2023-12-20T07:27:04;19.10;57.60
16901;DHT22;8567;52.540;6.434;2023-12-20T07:29:31;19.00;57.60
16901;DHT22;8567;52.540;6.434;2023-12-20T07:32:00;19.00;57.40
16901;DHT22;8567;52.540;6.434;2023-12-20T07:34:27;19.00;57.00
16901;DHT22;8567;52.540;6.434;2023-12-20T07:36:54;19.00;56.60
16901;DHT22;8567;52.540;6.434;2023-12-20T07:39:21;19.00;56.20
16901;DHT22;8567;52.540;6.434;2023-12-20T07:41:48;19.00;56.10
16901;DHT22;8567;52.540;6.434;2023-12-20T07:44:15;19.00;55.70
16901;DHT22;8567;52.540;6.434;2023-12-20T07:46:42;19.00;55.70
16901;DHT22;8567;52.540;6.434;2023-12-20T07:49:11;19.00;55.90
16901;DHT22;8567;52.540;6.434;2023-12-20T07:51:38;19.00;55.30
16901;DHT22;8567;52.540;6.434;2023-12-20T07:54:05;19.00;55.20
16901;DHT22;8567;52.540;6.434;2023-12-20T07:56:33;18.90;55.50
16901;DHT22;8567;52.540;6.434;2023-12-20T07:59:00;18.90;55.10
16901;DHT22;8567;52.540;6.434;2023-12-20T08:01:27;18.90;56.10
16901;DHT22;8567;52.540;6.434;2023-12-20T08:03:54;18.90;55.40
16901;DHT22;8567;52.540;6.434;2023-12-20T08:06:22;19.00;55.90
16901;DHT22;8567;52.540;6.434;2023-12-20T08:08:49;19.00;55.70
16901;DHT22;8567;52.540;6.434;2023-12-20T08:11:16;19.00;56.10
16901;DHT22;8567;52.540;6.434;2023-12-20T08:13:43;19.00;56.30
16901;DHT22;8567;52.540;6.434;2023-12-20T08:16:10;19.10;56.50
16901;DHT22;8567;52.540;6.434;2023-12-20T08:18:38;19.10;56.70
16901;DHT22;8567;52.540;6.434;2023-12-20T08:21:06;19.10;56.80
16901;DHT22;8567;52.540;6.434;2023-12-20T08:23:35;19.10;56.80
16901;DHT22;8567;52.540;6.434;2023-12-20T08:26:04;19.10;57.00
16901;DHT22;8567;52.540;6.434;2023-12-20T08:28:31;19.10;57.10
16901;DHT22;8567;52.540;6.434;2023-12-20T08:30:58;19.10;57.20
16901;DHT22;8567;52.540;6.434;2023-12-20T08:33:25;19.10;57.10
16901;DHT22;8567;52.540;6.434;2023-12-20T08:35:52;19.10;57.10
16901;DHT22;8567;52.540;6.434;2023-12-20T08:38:19;19.10;57.00
16901;DHT22;8567;52.540;6.434;2023-12-20T08:40:47;19.20;57.00
16901;DHT22;8567;52.540;6.434;2023-12-20T08:43:15;19.20;57.10
16901;DHT22;8567;52.540;6.434;2023-12-20T08:45:42;19.20;57.20
16901;DHT22;8567;52.540;6.434;2023-12-20T08:48:09;19.20;57.30
16901;DHT22;8567;52.540;6.434;2023-12-20T08:50:37;19.20;57.10
16901;DHT22;8567;52.540;6.434;2023-12-20T08:53:04;19.20;57.40
16901;DHT22;8567;52.540;6.434;2023-12-20T08:55:31;19.20;57.40
16901;DHT22;8567;52.540;6.434;2023-12-20T08:57:59;19.30;57.60
16901;DHT22;8567;52.540;6.434;2023-12-20T09:00:26;19.30;57.70
16901;DHT22;8567;52.540;6.434;2023-12-20T09:02:53;19.30;57.80
16901;DHT22;8567;52.540;6.434;2023-12-20T09:05:20;19.30;57.80
16901;DHT22;8567;52.540;6.434;2023-12-20T09:07:47;19.30;57.90
16901;DHT22;8567;52.540;6.434;2023-12-20T09:10:14;19.40;58.00
16901;DHT22;8567;52.540;6.434;2023-12-20T09:12:47;19.40;57.90
16901;DHT22;8567;52.540;6.434;2023-12-20T09:15:15;19.40;58.00
16901;DHT22;8567;52.540;6.434;2023-12-20T09:17:44;19.40;58.00
16901;DHT22;8567;52.540;6.434;2023-12-20T09:20:13;19.40;58.00
16901;DHT22;8567;52.540;6.434;2023-12-20T09:22:40;19.50;58.00
16901;DHT22;8567;52.540;6.434;2023-12-20T09:25:08;19.50;58.20
16901;DHT22;8567;52.540;6.434;2023-12-20T09:27:35;19.50;58.20
16901;DHT22;8567;52.540;6.434;2023-12-20T09:30:05;19.50;58.40
16901;DHT22;8567;52.540;6.434;2023-12-20T09:32:34;19.50;58.50
16901;DHT22;8567;52.540;6.434;2023-12-20T09:35:01;19.50;58.50
16901;DHT22;8567;52.540;6.434;2023-12-20T09:37:28;19.50;58.50
16901;DHT22;8567;52.540;6.434;2023-12-20T09:39:55;19.50;58.50
16901;DHT22;8567;52.540;6.434;2023-12-20T09:42:35;19.50;58.60
16901;DHT22;8567;52.540;6.434;2023-12-20T09:45:08;19.60;58.80
16901;DHT22;8567;52.540;6.434;2023-12-20T09:47:36;19.60;59.20
16901;DHT22;8567;52.540;6.434;2023-12-20T09:50:05;19.60;59.00
16901;DHT22;8567;52.540;6.434;2023-12-20T09:52:34;19.60;58.70
16901;DHT22;8567;52.540;6.434;2023-12-20T09:55:03;19.60;58.60
16901;DHT22;8567;52.540;6.434;2023-12-20T09:57:31;19.70;58.50
16901;DHT22;8567;52.540;6.434;2023-12-20T09:59:58;19.60;58.30
16901;DHT22;8567;52.540;6.434;2023-12-20T10:02:25;19.60;58.10
16901;DHT22;8567;52.540;6.434;2023-12-20T10:04:54;19.60;57.70
16901;DHT22;8567;52.540;6.434;2023-12-20T10:07:21;19.60;57.00
16901;DHT22;8567;52.540;6.434;2023-12-20T10:09:51;19.60;57.00
16901;DHT22;8567;52.540;6.434;2023-12-20T10:12:20;19.60;56.40
16901;DHT22;8567;52.540;6.434;2023-12-20T10:14:47;19.60;56.50
16901;DHT22;8567;52.540;6.434;2023-12-20T10:17:14;19.60;56.00
16901;DHT22;8567;52.540;6.434;2023-12-20T10:19:43;19.50;55.90
16901;DHT22;8567;52.540;6.434;2023-12-20T10:22:11;19.50;55.70
16901;DHT22;8567;52.540;6.434;2023-12-20T10:24:40;19.50;55.90
16901;DHT22;8567;52.540;6.434;2023-12-20T10:27:08;19.50;55.80
16901;DHT22;8567;52.540;6.434;2023-12-20T10:29:36;19.50;54.50
16901;DHT22;8567;52.540;6.434;2023-12-20T10:32:23;19.50;54.90
16901;DHT22;8567;52.540;6.434;2023-12-20T10:34:50;19.50;54.70
16901;DHT22;8567;52.540;6.434;2023-12-20T10:37:18;19.40;54.70
16901;DHT22;8567;52.540;6.434;2023-12-20T10:39:49;19.40;54.10
16901;DHT22;8567;52.540;6.434;2023-12-20T10:42:16;19.40;53.00
16901;DHT22;8567;52.540;6.434;2023-12-20T10:44:43;19.30;52.10
16901;DHT22;8567;52.540;6.434;2023-12-20T10:47:11;19.30;52.60
16901;DHT22;8567;52.540;6.434;2023-12-20T10:49:40;19.30;52.90
16901;DHT22;8567;52.540;6.434;2023-12-20T10:52:11;19.40;53.20
16901;DHT22;8567;52.540;6.434;2023-12-20T10:54:40;19.40;53.20
16901;DHT22;8567;52.540;6.434;2023-12-20T10:57:08;19.40;53.40
16901;DHT22;8567;52.540;6.434;2023-12-20T10:59:37;19.30;53.40
16901;DHT22;8567;52.540;6.434;2023-12-20T11:02:04;19.30;53.20
16901;DHT22;8567;52.540;6.434;2023-12-20T11:04:39;19.30;53.50
16901;DHT22;8567;52.540;6.434;2023-12-20T11:07:17;19.30;53.50
16901;DHT22;8567;52.540;6.434;2023-12-20T11:09:53;19.30;53.40
16901;DHT22;8567;52.540;6.434;2023-12-20T11:12:28;19.30;53.70
16901;DHT22;8567;52.540;6.434;2023-12-20T11:14:59;19.40;53.90
16901;DHT22;8567;52.540;6.434;2023-12-20T11:17:29;19.40;54.00
16901;DHT22;8567;52.540;6.434;2023-12-20T11:20:08;19.40;54.20
16901;DHT22;8567;52.540;6.434;2023-12-20T11:22:37;19.40;54.30
16901;DHT22;8567;52.540;6.434;2023-12-20T11:25:10;19.30;54.50
16901;DHT22;8567;52.540;6.434;2023-12-20T11:27:41;19.40;54.50
16901;DHT22;8567;52.540;6.434;2023-12-20T11:30:10;19.40;54.70
16901;DHT22;8567;52.540;6.434;2023-12-20T11:32:37;19.40;54.90
16901;DHT22;8567;52.540;6.434;2023-12-20T11:35:19;19.40;54.80
16901;DHT22;8567;52.540;6.434;2023-12-20T11:37:46;19.40;54.90
16901;DHT22;8567;52.540;6.434;2023-12-20T11:40:16;19.40;54.90
16901;DHT22;8567;52.540;6.434;2023-12-20T11:42:45;19.40;55.00
16901;DHT22;8567;52.540;6.434;2023-12-20T11:45:14;19.40;55.10
16901;DHT22;8567;52.540;6.434;2023-12-20T11:47:43;19.40;55.10
16901;DHT22;8567;52.540;6.434;2023-12-20T11:50:10;19.40;55.10
16901;DHT22;8567;52.540;6.434;2023-12-20T11:52:37;19.40;55.00
16901;DHT22;8567;52.540;6.434;2023-12-20T11:55:05;19.40;55.20
16901;DHT22;8567;52.540;6.434;2023-12-20T11:57:33;19.40;55.20
16901;DHT22;8567;52.540;6.434;2023-12-20T12:00:00;19.40;55.30
16901;DHT22;8567;52.540;6.434;2023-12-20T12:02:28;19.40;55.30
16901;DHT22;8567;52.540;6.434;2023-12-20T12:04:55;19.40;55.40
16901;DHT22;8567;52.540;6.434;2023-12-20T12:07:22;19.40;55.40
16901;DHT22;8567;52.540;6.434;2023-12-20T12:09:49;19.40;55.40
16901;DHT22;8567;52.540;6.434;2023-12-20T12:12:16;19.40;55.40
16901;DHT22;8567;52.540;6.434;2023-12-20T12:14:45;19.40;55.40
16901;DHT22;8567;52.540;6.434;2023-12-20T12:17:12;19.40;55.50
16901;DHT22;8567;52.540;6.434;2023-12-20T12:19:40;19.40;55.50
16901;DHT22;8567;52.540;6.434;2023-12-20T12:22:08;19.40;55.50
16901;DHT22;8567;52.540;6.434;2023-12-20T12:24:38;19.40;55.50
16901;DHT22;8567;52.540;6.434;2023-12-20T12:27:06;19.40;55.50
16901;DHT22;8567;52.540;6.434;2023-12-20T12:29:34;19.40;55.50
16901;DHT22;8567;52.540;6.434;2023-12-20T12:32:04;19.40;55.50
16901;DHT22;8567;52.540;6.434;2023-12-20T12:34:32;19.40;55.40
16901;DHT22;8567;52.540;6.434;2023-12-20T12:36:59;19.40;55.30
16901;DHT22;8567;52.540;6.434;2023-12-20T12:39:26;19.40;55.40
16901;DHT22;8567;52.540;6.434;2023-12-20T12:41:55;19.40;55.50
16901;DHT22;8567;52.540;6.434;2023-12-20T12:44:23;19.40;55.50
16901;DHT22;8567;52.540;6.434;2023-12-20T12:46:52;19.40;55.50
16901;DHT22;8567;52.540;6.434;2023-12-20T12:49:21;19.40;55.50
16901;DHT22;8567;52.540;6.434;2023-12-20T12:51:49;19.40;55.50
16901;DHT22;8567;52.540;6.434;2023-12-20T12:54:16;19.40;55.50
16901;DHT22;8567;52.540;6.434;2023-12-20T12:56:44;19.40;55.60
16901;DHT22;8567;52.540;6.434;2023-12-20T12:59:12;19.40;55.60
16901;DHT22;8567;52.540;6.434;2023-12-20T13:01:39;19.40;55.50
16901;DHT22;8567;52.540;6.434;2023-12-20T13:04:06;19.40;55.60
16901;DHT22;8567;52.540;6.434;2023-12-20T13:06:37;19.40;55.60
16901;DHT22;8567;52.540;6.434;2023-12-20T13:09:05;19.40;55.60
16901;DHT22;8567;52.540;6.434;2023-12-20T13:11:32;19.40;55.60
16901;DHT22;8567;52.540;6.434;2023-12-20T13:13:58;19.40;55.70
16901;DHT22;8567;52.540;6.434;2023-12-20T13:16:26;19.40;55.80
16901;DHT22;8567;52.540;6.434;2023-12-20T13:18:53;19.40;55.80
16901;DHT22;8567;52.540;6.434;2023-12-20T13:21:20;19.40;55.70
16901;DHT22;8567;52.540;6.434;2023-12-20T13:23:48;19.40;55.80
16901;DHT22;8567;52.540;6.434;2023-12-20T13:26:15;19.40;55.70
16901;DHT22;8567;52.540;6.434;2023-12-20T13:28:42;19.40;55.80
16901;DHT22;8567;52.540;6.434;2023-12-20T13:31:08;19.40;55.90
16901;DHT22;8567;52.540;6.434;2023-12-20T13:33:36;19.40;55.90
16901;DHT22;8567;52.540;6.434;2023-12-20T13:36:04;19.40;55.90
16901;DHT22;8567;52.540;6.434;2023-12-20T13:38:31;19.40;56.00
16901;DHT22;8567;52.540;6.434;2023-12-20T13:40:59;19.40;55.90
16901;DHT22;8567;52.540;6.434;2023-12-20T13:43:26;19.40;56.00
16901;DHT22;8567;52.540;6.434;2023-12-20T13:45:53;19.40;56.10
16901;DHT22;8567;52.540;6.434;2023-12-20T13:48:22;19.40;56.10
16901;DHT22;8567;52.540;6.434;2023-12-20T13:50:49;19.40;56.00
16901;DHT22;8567;52.540;6.434;2023-12-20T13:53:16;19.40;56.00
16901;DHT22;8567;52.540;6.434;2023-12-20T13:55:44;19.40;56.00
16901;DHT22;8567;52.540;6.434;2023-12-20T13:58:14;19.40;56.00
16901;DHT22;8567;52.540;6.434;2023-12-20T14:00:41;19.40;56.00
16901;DHT22;8567;52.540;6.434;2023-12-20T14:03:08;19.40;55.90
16901;DHT22;8567;52.540;6.434;2023-12-20T14:05:35;19.40;55.90
16901;DHT22;8567;52.540;6.434;2023-12-20T14:08:01;19.40;55.90
16901;DHT22;8567;52.540;6.434;2023-12-20T14:10:28;19.40;55.80
16901;DHT22;8567;52.540;6.434;2023-12-20T14:12:56;19.40;55.80
16901;DHT22;8567;52.540;6.434;2023-12-20T14:15:24;19.40;55.60
16901;DHT22;8567;52.540;6.434;2023-12-20T14:17:51;19.40;55.70
16901;DHT22;8567;52.540;6.434;2023-12-20T14:20:20;19.40;55.60
16901;DHT22;8567;52.540;6.434;2023-12-20T14:22:47;19.40;55.60
16901;DHT22;8567;52.540;6.434;2023-12-20T14:25:14;19.40;55.60
16901;DHT22;8567;52.540;6.434;2023-12-20T14:27:41;19.40;55.60
16901;DHT22;8567;52.540;6.434;2023-12-20T14:30:10;19.40;55.60
16901;DHT22;8567;52.540;6.434;2023-12-20T14:32:40;19.40;55.50
16901;DHT22;8567;52.540;6.434;2023-12-20T14:35:08;19.40;55.40
16901;DHT22;8567;52.540;6.434;2023-12-20T14:37:35;19.40;55.40
16901;DHT22;8567;52.540;6.434;2023-12-20T14:40:06;19.30;55.30
16901;DHT22;8567;52.540;6.434;2023-12-20T14:42:36;19.40;55.30
16901;DHT22;8567;52.540;6.434;2023-12-20T14:45:04;19.40;55.20
16901;DHT22;8567;52.540;6.434;2023-12-20T14:47:31;19.30;55.20
16901;DHT22;8567;52.540;6.434;2023-12-20T14:49:59;19.30;55.10
16901;DHT22;8567;52.540;6.434;2023-12-20T14:52:26;19.30;55.10
16901;DHT22;8567;52.540;6.434;2023-12-20T14:54:53;19.30;55.00
16901;DHT22;8567;52.540;6.434;2023-12-20T14:57:20;19.30;55.00
16901;DHT22;8567;52.540;6.434;2023-12-20T14:59:47;19.30;54.90
16901;DHT22;8567;52.540;6.434;2023-12-20T15:02:13;19.30;54.90
16901;DHT22;8567;52.540;6.434;2023-12-20T15:04:41;19.30;55.00
16901;DHT22;8567;52.540;6.434;2023-12-20T15:07:09;19.30;54.90
16901;DHT22;8567;52.540;6.434;2023-12-20T15:09:36;19.30;54.80
16901;DHT22;8567;52.540;6.434;2023-12-20T15:12:03;19.30;54.80
16901;DHT22;8567;52.540;6.434;2023-12-20T15:14:30;19.30;54.80
16901;DHT22;8567;52.540;6.434;2023-12-20T15:16:57;19.30;54.90
16901;DHT22;8567;52.540;6.434;2023-12-20T15:19:24;19.30;54.90
16901;DHT22;8567;52.540;6.434;2023-12-20T15:21:51;19.30;54.90
16901;DHT22;8567;52.540;6.434;2023-12-20T15:24:19;19.30;54.70
16901;DHT22;8567;52.540;6.434;2023-12-20T15:26:53;19.30;54.90
16901;DHT22;8567;52.540;6.434;2023-12-20T15:29:20;19.30;54.80
16901;DHT22;8567;52.540;6.434;2023-12-20T15:31:47;19.30;54.80
16901;DHT22;8567;52.540;6.434;2023-12-20T15:34:14;19.30;54.80
16901;DHT22;8567;52.540;6.434;2023-12-20T15:36:42;19.30;54.80
16901;DHT22;8567;52.540;6.434;2023-12-20T15:39:09;19.30;54.90
16901;DHT22;8567;52.540;6.434;2023-12-20T15:41:41;19.30;54.70
16901;DHT22;8567;52.540;6.434;2023-12-20T15:44:08;19.30;54.70
16901;DHT22;8567;52.540;6.434;2023-12-20T15:46:35;19.30;54.70
16901;DHT22;8567;52.540;6.434;2023-12-20T15:49:02;19.30;54.60